Time;durP1;ratioP1;P1;durP2;ratioP2;P2;SDS_P1;SDS_P2;PMS_P1;PMS_P2;Temp;Humidity;BMP_temperature;BMP_pressure;BME280_temperature;BME280_humidity;BME280_pressure;Samples;Min_cycle;Max_cycle;Signal;HPM_P1;HPM_P2
2021/10/05 00:02:14;;;;;;;5.03;3.45;;;10.00;87.10;;;;;;5075043;28;20046;-37
2021/10/05 00:04:39;;;;;;;3.55;2.55;;;10.00;87.20;;;;;;5074940;28;20063;-37
2021/10/05 00:07:05;;;;;;;5.55;2.70;;;9.90;87.30;;;;;;5074012;28;20099;-37
2021/10/05 00:09:31;;;;;;;6.03;3.50;;;9.90;87.40;;;;;;5074908;28;20400;-36
2021/10/05 00:11:57;;;;;;;7.18;2.80;;;9.90;87.40;;;;;;5075570;28;20021;-36
2021/10/05 00:14:22;;;;;;;8.65;4.32;;;9.90;87.50;;;;;;5056898;28;20033;-37
2021/10/05 00:16:49;;;;;;;7.55;3.58;;;10.00;87.40;;;;;;5074889;28;20031;-36
2021/10/05 00:19:16;;;;;;;3.95;2.67;;;9.90;87.40;;;;;;5074953;28;20078;-37
2021/10/05 00:21:42;;;;;;;6.68;3.08;;;9.90;87.50;;;;;;5074882;28;20025;-37
2021/10/05 00:24:08;;;;;;;5.90;2.38;;;9.90;87.50;;;;;;5056848;28;20111;-38
2021/10/05 00:26:34;;;;;;;6.20;2.75;;;9.90;87.50;;;;;;5056656;28;20112;-37
2021/10/05 00:28:59;;;;;;;4.88;2.60;;;9.90;87.50;;;;;;5074969;28;20034;-37
2021/10/05 00:31:25;;;;;;;5.60;2.72;;;9.90;87.60;;;;;;5074537;28;20377;-37
2021/10/05 00:33:50;;;;;;;6.63;3.33;;;9.90;87.60;;;;;;5074632;28;20020;-37
2021/10/05 00:36:16;;;;;;;8.23;2.85;;;9.90;87.60;;;;;;5074561;28;20124;-37
2021/10/05 00:38:42;;;;;;;3.88;2.65;;;10.00;87.50;;;;;;5074567;28;20040;-37
2021/10/05 00:41:07;;;;;;;4.97;3.05;;;10.00;87.40;;;;;;5056590;28;20064;-37
2021/10/05 00:43:33;;;;;;;4.35;2.60;;;10.00;87.60;;;;;;5074467;28;20052;-38
2021/10/05 00:45:59;;;;;;;8.73;2.90;;;10.00;87.30;;;;;;5074784;28;20025;-37
2021/10/05 00:48:24;;;;;;;5.50;2.50;;;10.10;87.30;;;;;;5056264;28;20029;-38
2021/10/05 00:50:50;;;;;;;13.38;4.72;;;10.10;87.00;;;;;;5074665;28;20024;-37
2021/10/05 00:53:16;;;;;;;5.75;3.13;;;10.10;86.90;;;;;;5074498;28;20529;-36
2021/10/05 00:55:42;;;;;;;6.30;2.90;;;10.10;87.10;;;;;;5074391;28;20021;-37
2021/10/05 00:58:08;;;;;;;6.40;3.00;;;10.10;87.10;;;;;;5073997;28;20495;-37
2021/10/05 01:00:34;;;;;;;4.60;3.22;;;10.10;87.30;;;;;;5073857;28;20028;-37
2021/10/05 01:02:59;;;;;;;3.50;2.67;;;10.20;87.10;;;;;;5073982;28;20025;-37
2021/10/05 01:05:25;;;;;;;3.67;2.55;;;10.30;87.10;;;;;;5073626;28;20056;-37
2021/10/05 01:07:51;;;;;;;5.35;2.85;;;10.40;86.50;;;;;;5073665;28;20103;-37
2021/10/05 01:10:18;;;;;;;5.85;3.00;;;10.40;86.30;;;;;;5055586;28;20025;-37
2021/10/05 01:12:49;;;;;;;8.05;2.80;;;10.40;86.30;;;;;;5073781;28;20028;-38
2021/10/05 01:15:16;;;;;;;4.20;2.28;;;10.40;86.20;;;;;;5055870;28;20469;-38
2021/10/05 01:17:41;;;;;;;4.22;2.30;;;10.30;86.30;;;;;;5073244;28;20401;-37
2021/10/05 01:20:08;;;;;;;6.15;2.42;;;10.40;86.40;;;;;;5073392;28;20131;-37
2021/10/05 01:22:34;;;;;;;4.18;2.30;;;10.50;86.50;;;;;;5073610;28;20052;-37
2021/10/05 01:25:12;;;;;;;5.47;2.58;;;10.60;86.20;;;;;;5073780;28;20076;-37
2021/10/05 01:27:46;;;;;;;2.47;2.10;;;10.80;85.70;;;;;;5073177;28;20077;-37
2021/10/05 01:30:12;;;;;;;2.70;1.95;;;10.80;85.10;;;;;;5073461;28;20192;-37
2021/10/05 01:32:38;;;;;;;3.65;2.25;;;10.80;85.00;;;;;;5073279;28;20071;-37
2021/10/05 01:35:06;;;;;;;5.80;2.53;;;10.80;85.10;;;;;;5073489;28;20461;-37
2021/10/05 01:37:32;;;;;;;4.88;2.45;;;10.80;85.20;;;;;;5073455;28;20038;-37
2021/10/05 01:39:58;;;;;;;3.20;2.42;;;10.90;84.90;;;;;;5055681;28;20024;-37
2021/10/05 01:42:24;;;;;;;4.13;2.38;;;11.00;84.80;;;;;;5073477;28;20025;-37
2021/10/05 01:44:51;;;;;;;2.15;1.92;;;11.00;84.90;;;;;;5073585;28;20090;-37
2021/10/05 01:47:17;;;;;;;3.25;1.73;;;10.90;84.90;;;;;;5073153;28;20145;-37
2021/10/05 01:49:43;;;;;;;3.45;1.75;;;11.00;84.90;;;;;;5055280;28;20025;-37
2021/10/05 01:52:08;;;;;;;4.13;2.33;;;11.00;84.90;;;;;;5055158;28;20023;-37
2021/10/05 01:54:36;;;;;;;7.57;1.88;;;11.00;84.80;;;;;;5073237;28;20032;-37
2021/10/05 01:57:02;;;;;;;7.07;2.00;;;11.00;84.90;;;;;;5073166;28;20353;-36
2021/10/05 01:59:28;;;;;;;2.90;1.55;;;11.10;84.70;;;;;;5072951;28;20436;-37
2021/10/05 02:01:53;;;;;;;2.78;1.88;;;11.10;84.20;;;;;;5072974;28;20021;-36
2021/10/05 02:04:19;;;;;;;4.32;1.85;;;11.00;84.50;;;;;;5072812;28;20519;-36
2021/10/05 02:06:45;;;;;;;2.67;2.17;;;11.10;84.80;;;;;;5054879;28;20032;-38
2021/10/05 02:09:12;;;;;;;2.20;1.83;;;11.10;84.60;;;;;;5054921;28;20020;-37
2021/10/05 02:11:38;;;;;;;3.08;1.40;;;11.00;84.70;;;;;;5073090;28;20021;-38
2021/10/05 02:14:04;;;;;;;3.65;1.70;;;11.00;85.10;;;;;;5073143;28;20025;-38
2021/10/05 02:16:31;;;;;;;4.80;2.35;;;11.00;85.30;;;;;;5072771;28;20029;-37
2021/10/05 02:18:57;;;;;;;3.97;1.55;;;11.00;85.10;;;;;;5054629;28;20449;-37
2021/10/05 02:21:23;;;;;;;5.85;1.75;;;11.00;85.10;;;;;;5072754;28;20056;-38
2021/10/05 02:26:33;;;;;;;2.38;1.52;;;11.00;85.00;;;;;;5072980;28;20059;-37
2021/10/05 02:29:00;;;;;;;2.85;1.92;;;11.00;84.90;;;;;;5073085;28;20025;-38
2021/10/05 02:31:25;;;;;;;3.53;1.92;;;11.00;84.80;;;;;;5072166;28;20024;-36
2021/10/05 02:33:51;;;;;;;2.67;1.60;;;11.00;84.60;;;;;;5072599;28;20017;-37
2021/10/05 02:36:17;;;;;;;3.42;2.10;;;10.80;85.20;;;;;;5072773;28;20027;-37
2021/10/05 02:38:43;;;;;;;2.55;1.67;;;10.50;85.80;;;;;;5072753;28;20096;-38
2021/10/05 02:41:09;;;;;;;6.10;2.28;;;10.30;86.40;;;;;;5072922;28;20071;-37
2021/10/05 02:43:35;;;;;;;3.75;2.25;;;10.20;87.00;;;;;;5072911;28;20048;-37
2021/10/05 02:46:00;;;;;;;5.25;2.40;;;10.20;87.20;;;;;;5072467;28;20044;-37
2021/10/05 02:48:26;;;;;;;3.78;2.17;;;10.10;87.50;;;;;;5072534;28;20078;-37
2021/10/05 02:50:52;;;;;;;2.67;2.13;;;10.10;87.70;;;;;;5072772;28;20031;-37
2021/10/05 02:53:18;;;;;;;3.22;1.98;;;10.10;87.80;;;;;;5072737;28;20100;-38
2021/10/05 02:55:44;;;;;;;3.80;2.40;;;10.20;87.90;;;;;;5072734;28;20465;-37
2021/10/05 02:58:10;;;;;;;5.28;2.00;;;10.20;87.80;;;;;;5072779;28;20032;-37
2021/10/05 03:00:36;;;;;;;3.95;2.28;;;10.20;87.70;;;;;;5072399;28;20025;-37
2021/10/05 03:03:01;;;;;;;3.60;2.10;;;10.30;87.70;;;;;;5072707;28;20025;-37
2021/10/05 03:05:27;;;;;;;6.03;1.95;;;10.30;87.50;;;;;;5072562;28;20056;-37
2021/10/05 03:07:53;;;;;;;5.53;2.30;;;10.30;87.50;;;;;;5072386;28;20032;-37
2021/10/05 03:10:18;;;;;;;3.60;2.00;;;10.40;87.60;;;;;;5072895;28;20020;-37
2021/10/05 03:12:44;;;;;;;3.92;1.50;;;10.40;87.40;;;;;;5072398;28;20062;-37
2021/10/05 03:15:10;;;;;;;2.58;2.03;;;10.50;87.50;;;;;;5072295;28;20062;-36
2021/10/05 03:17:35;;;;;;;4.15;2.25;;;10.70;86.70;;;;;;5072594;28;20028;-37
2021/10/05 03:20:01;;;;;;;2.17;1.83;;;10.60;86.50;;;;;;5072467;28;20032;-37
2021/10/05 03:22:27;;;;;;;2.40;1.85;;;10.60;86.70;;;;;;5054162;28;20033;-37
2021/10/05 03:24:53;;;;;;;4.35;3.00;;;10.50;86.80;;;;;;5072597;28;20043;-37
2021/10/05 03:27:19;;;;;;;4.53;2.92;;;10.50;87.00;;;;;;5072186;28;20029;-37
2021/10/05 03:29:44;;;;;;;6.88;2.40;;;10.50;87.30;;;;;;5072060;28;20078;-37
2021/10/05 03:32:10;;;;;;;3.13;2.33;;;10.50;87.40;;;;;;5054343;28;20116;-37
2021/10/05 03:34:36;;;;;;;4.45;2.38;;;10.60;86.70;;;;;;5054153;28;20020;-37
2021/10/05 03:37:02;;;;;;;5.07;2.20;;;10.50;86.90;;;;;;5072246;28;20025;-38
2021/10/05 03:39:28;;;;;;;5.38;2.17;;;10.50;87.20;;;;;;5072086;28;20354;-37
2021/10/05 03:41:53;;;;;;;7.63;2.50;;;10.40;87.50;;;;;;5072726;28;20025;-37
2021/10/05 03:44:19;;;;;;;3.42;2.20;;;10.40;87.60;;;;;;5057685;28;20032;-37
2021/10/05 03:46:44;;;;;;;3.83;2.50;;;10.50;87.60;;;;;;5075576;28;20024;-37
2021/10/05 03:49:10;;;;;;;11.50;2.55;;;10.60;87.20;;;;;;5075495;28;20027;-37
2021/10/05 03:51:36;;;;;;;6.28;3.55;;;10.40;87.50;;;;;;5075448;28;20095;-37
2021/10/05 03:54:01;;;;;;;4.78;2.30;;;10.30;87.60;;;;;;5075395;28;20524;-37
2021/10/05 03:56:27;;;;;;;6.63;2.70;;;10.30;87.90;;;;;;5075314;28;20027;-38
2021/10/05 03:58:53;;;;;;;4.43;2.42;;;10.40;87.70;;;;;;5075314;28;20025;-37
2021/10/05 04:01:19;;;;;;;2.85;2.33;;;10.30;87.80;;;;;;5075357;28;20369;-38
2021/10/05 04:03:44;;;;;;;4.55;2.58;;;10.30;87.80;;;;;;5075158;28;20112;-38
2021/10/05 04:06:11;;;;;;;5.22;2.92;;;10.30;88.10;;;;;;5075278;28;20048;-37
2021/10/05 04:08:37;;;;;;;3.35;2.45;;;10.30;88.20;;;;;;5075038;28;20112;-37
2021/10/05 04:11:05;;;;;;;4.45;2.20;;;10.30;88.40;;;;;;5074990;28;20500;-37
2021/10/05 04:13:31;;;;;;;6.43;2.35;;;10.30;88.50;;;;;;5074964;28;20025;-37
2021/10/05 04:15:57;;;;;;;4.30;1.83;;;10.60;87.70;;;;;;5075107;28;20047;-37
2021/10/05 04:18:23;;;;;;;4.15;2.42;;;10.70;87.40;;;;;;5074856;28;20055;-37
2021/10/05 04:20:49;;;;;;;3.78;2.10;;;10.70;87.30;;;;;;5075275;28;20090;-38
2021/10/05 04:23:14;;;;;;;4.32;2.60;;;10.60;87.40;;;;;;5074919;28;20052;-37
2021/10/05 04:25:40;;;;;;;5.88;2.45;;;10.60;87.60;;;;;;5056641;28;20032;-37
2021/10/05 04:28:06;;;;;;;7.05;2.90;;;10.50;87.60;;;;;;5074939;28;20029;-37
2021/10/05 04:30:32;;;;;;;6.72;3.08;;;10.50;87.70;;;;;;5074823;28;20415;-39
2021/10/05 04:32:58;;;;;;;4.80;2.28;;;10.50;87.90;;;;;;5056633;28;20096;-37
2021/10/05 04:35:24;;;;;;;4.18;2.35;;;10.50;87.90;;;;;;5074930;28;20440;-37
2021/10/05 04:37:49;;;;;;;5.93;2.30;;;10.60;87.90;;;;;;5074722;28;20103;-38
2021/10/05 04:40:15;;;;;;;3.67;2.10;;;10.60;87.70;;;;;;5074559;28;20024;-37
2021/10/05 04:42:41;;;;;;;2.88;2.60;;;10.60;87.80;;;;;;5074769;28;20033;-37
2021/10/05 04:45:08;;;;;;;5.28;2.30;;;10.60;87.70;;;;;;5074671;28;20038;-37
2021/10/05 04:47:35;;;;;;;3.53;2.22;;;10.60;87.70;;;;;;5075046;28;20050;-37
2021/10/05 04:50:03;;;;;;;3.95;2.65;;;10.50;87.70;;;;;;5074174;28;20112;-37
2021/10/05 04:52:29;;;;;;;2.22;2.03;;;10.50;88.00;;;;;;5073966;28;20024;-37
2021/10/05 04:54:54;;;;;;;3.50;2.78;;;10.50;87.80;;;;;;5056237;28;20043;-37
2021/10/05 04:57:20;;;;;;;6.47;2.38;;;10.50;88.00;;;;;;5074315;28;20032;-38
2021/10/05 04:59:46;;;;;;;2.97;2.20;;;10.50;87.90;;;;;;5074123;28;20028;-37
2021/10/05 05:02:12;;;;;;;2.83;2.25;;;10.40;88.10;;;;;;5073917;28;20028;-37
2021/10/05 05:04:37;;;;;;;6.35;2.55;;;10.50;88.00;;;;;;5073806;28;20052;-37
2021/10/05 05:07:03;;;;;;;7.07;2.45;;;10.40;88.10;;;;;;5073856;28;20028;-37
2021/10/05 05:09:29;;;;;;;3.30;2.47;;;10.40;88.40;;;;;;5074403;28;20039;-38
2021/10/05 05:11:55;;;;;;;5.25;2.15;;;10.50;88.10;;;;;;5074077;28;20032;-37
2021/10/05 05:14:22;;;;;;;3.08;2.05;;;10.50;88.10;;;;;;5073931;28;20078;-37
2021/10/05 05:16:48;;;;;;;2.50;2.20;;;10.60;88.00;;;;;;5055866;28;20029;-38
2021/10/05 05:19:14;;;;;;;5.00;2.85;;;10.50;88.00;;;;;;5073793;28;20029;-38
2021/10/05 05:21:42;;;;;;;4.45;2.60;;;10.50;88.10;;;;;;5039045;28;20024;-38
2021/10/05 05:24:08;;;;;;;5.68;3.42;;;10.60;88.20;;;;;;5055722;28;20031;-38
2021/10/05 05:26:34;;;;;;;4.32;2.97;;;10.70;88.00;;;;;;5073484;28;20361;-37
2021/10/05 05:29:00;;;;;;;5.05;2.90;;;10.70;87.70;;;;;;5073722;28;20036;-37
2021/10/05 05:31:26;;;;;;;5.60;2.85;;;10.70;87.60;;;;;;5038628;28;20025;-37
2021/10/05 05:33:52;;;;;;;4.70;3.67;;;10.60;87.80;;;;;;5073124;28;20077;-37
2021/10/05 05:36:17;;;;;;;4.00;3.30;;;10.70;87.90;;;;;;5073657;28;20062;-37
2021/10/05 05:38:43;;;;;;;5.30;3.55;;;10.60;88.00;;;;;;5073216;28;20028;-37
2021/10/05 05:41:09;;;;;;;5.47;3.67;;;10.80;87.80;;;;;;5073466;28;20024;-38
2021/10/05 05:43:35;;;;;;;9.43;3.40;;;10.80;87.60;;;;;;5073458;28;20042;-36
2021/10/05 05:46:01;;;;;;;4.75;3.45;;;10.80;87.60;;;;;;5073100;28;20025;-36
2021/10/05 05:48:26;;;;;;;4.97;3.25;;;10.90;87.10;;;;;;5054652;28;20028;-37
2021/10/05 05:50:52;;;;;;;6.13;4.00;;;10.90;87.00;;;;;;5072840;28;20070;-37
2021/10/05 05:53:18;;;;;;;6.07;4.05;;;10.80;87.10;;;;;;5073248;28;20028;-38
2021/10/05 05:55:44;;;;;;;9.00;3.55;;;10.90;87.20;;;;;;5073042;28;20098;-37
2021/10/05 05:58:17;;;;;;;8.43;4.53;;;10.90;87.00;;;;;;5055067;28;20393;-38
2021/10/05 06:00:45;;;;;;;5.65;4.50;;;10.90;87.00;;;;;;5072663;28;20033;-37
2021/10/05 06:03:11;;;;;;;5.28;4.18;;;11.00;87.00;;;;;;5073137;28;20052;-37
2021/10/05 06:05:38;;;;;;;4.38;3.47;;;11.00;86.80;;;;;;5071922;28;20076;-37
2021/10/05 06:08:04;;;;;;;7.82;3.88;;;11.00;87.00;;;;;;5073233;28;20511;-37
2021/10/05 06:10:30;;;;;;;7.28;3.83;;;11.00;86.80;;;;;;5072918;28;20092;-38
2021/10/05 06:12:56;;;;;;;8.38;3.75;;;11.10;86.90;;;;;;5072635;28;20098;-41
2021/10/05 06:15:23;;;;;;;6.32;3.63;;;11.10;86.40;;;;;;5073355;28;20029;-40
2021/10/05 06:17:52;;;;;;;6.07;4.15;;;11.10;86.60;;;;;;5073249;28;20142;-37
2021/10/05 06:20:21;;;;;;;6.40;3.95;;;11.10;86.50;;;;;;5072648;28;20032;-37
2021/10/05 06:22:48;;;;;;;3.72;3.22;;;11.20;86.50;;;;;;5055205;28;20105;-38
2021/10/05 06:25:19;;;;;;;7.50;3.67;;;11.30;86.50;;;;;;5073247;28;20073;-38
2021/10/05 06:27:45;;;;;;;5.07;3.50;;;11.40;86.00;;;;;;5073424;28;20052;-37
2021/10/05 06:30:13;;;;;;;4.72;3.80;;;11.30;85.80;;;;;;5072552;28;20078;-38
2021/10/05 06:32:39;;;;;;;8.23;4.40;;;11.40;85.80;;;;;;5072796;28;20021;-40
2021/10/05 06:35:06;;;;;;;10.77;4.20;;;11.50;85.70;;;;;;5072364;28;20025;-38
2021/10/05 06:37:32;;;;;;;9.40;5.03;;;11.60;85.60;;;;;;5072854;28;20024;-38
2021/10/05 06:39:58;;;;;;;6.97;3.92;;;11.70;85.20;;;;;;5054247;28;20021;-38
2021/10/05 06:42:24;;;;;;;7.47;4.07;;;11.80;84.80;;;;;;5071804;28;20062;-39
2021/10/05 06:44:49;;;;;;;9.00;4.60;;;11.80;84.70;;;;;;5072078;28;20021;-37
2021/10/05 06:47:15;;;;;;;7.30;4.18;;;12.00;83.90;;;;;;5071995;28;20033;-37
2021/10/05 06:49:41;;;;;;;6.25;3.75;;;12.10;83.60;;;;;;5072222;28;20369;-37
2021/10/05 06:52:07;;;;;;;7.20;3.40;;;12.10;83.70;;;;;;5053957;28;20013;-38
2021/10/05 06:54:33;;;;;;;7.35;4.13;;;12.20;83.50;;;;;;5072127;28;20452;-37
2021/10/05 06:56:59;;;;;;;4.30;3.70;;;12.20;83.50;;;;;;5071494;28;20024;-38
2021/10/05 06:59:25;;;;;;;5.90;3.17;;;12.30;83.30;;;;;;5071766;28;20029;-37
2021/10/05 07:01:51;;;;;;;7.47;3.08;;;12.30;83.10;;;;;;5053791;28;20333;-38
2021/10/05 07:04:16;;;;;;;6.47;3.63;;;12.40;82.80;;;;;;5053869;28;20174;-38
2021/10/05 07:06:44;;;;;;;4.22;2.75;;;12.40;82.70;;;;;;5071876;28;20554;-37
2021/10/05 07:09:10;;;;;;;3.88;3.25;;;12.50;82.40;;;;;;5072189;28;20097;-38
2021/10/05 07:11:36;;;;;;;8.43;3.10;;;12.50;82.40;;;;;;5072145;28;20449;-38
2021/10/05 07:14:01;;;;;;;4.15;2.92;;;12.60;82.10;;;;;;5071913;28;20028;-37
2021/10/05 07:16:27;;;;;;;8.52;3.30;;;12.80;81.80;;;;;;5074087;28;20016;-37
2021/10/05 07:18:53;;;;;;;3.72;2.67;;;12.80;81.60;;;;;;5075416;28;20032;-37
2021/10/05 07:21:20;;;;;;;3.42;2.92;;;12.80;81.50;;;;;;5075426;28;20546;-37
2021/10/05 07:23:46;;;;;;;7.78;2.75;;;13.00;80.80;;;;;;5075638;28;20245;-38
2021/10/05 07:26:12;;;;;;;3.25;2.38;;;13.10;80.90;;;;;;5057361;28;20021;-38
2021/10/05 07:28:38;;;;;;;4.28;2.90;;;13.30;80.30;;;;;;5075396;28;20031;-38
2021/10/05 07:31:04;;;;;;;5.35;2.90;;;13.30;80.30;;;;;;5075347;28;20503;-38
2021/10/05 07:33:29;;;;;;;4.50;2.15;;;13.40;79.60;;;;;;5075430;28;20025;-38
2021/10/05 07:35:55;;;;;;;4.25;2.25;;;13.40;79.50;;;;;;5075657;28;20100;-38
2021/10/05 07:38:21;;;;;;;4.53;2.13;;;13.50;79.70;;;;;;5075022;28;20060;-38
2021/10/05 07:40:48;;;;;;;6.57;2.38;;;13.80;78.30;;;;;;5075200;28;20036;-37
2021/10/05 07:43:14;;;;;;;2.60;2.22;;;13.70;77.70;;;;;;5075293;28;20476;-38
2021/10/05 07:45:41;;;;;;;2.65;1.75;;;13.80;77.50;;;;;;5075631;28;20468;-43
2021/10/05 07:48:07;;;;;;;2.22;2.03;;;13.90;76.80;;;;;;5075172;28;20025;-38
2021/10/05 07:50:34;;;;;;;2.42;1.80;;;13.90;76.70;;;;;;5075336;28;20112;-36
2021/10/05 07:53:02;;;;;;;3.33;2.13;;;14.10;75.90;;;;;;5057393;28;20048;-38
2021/10/05 07:55:32;;;;;;;2.30;1.52;;;13.80;76.70;;;;;;5057389;28;20024;-38
2021/10/05 07:57:58;;;;;;;1.75;1.65;;;13.60;77.50;;;;;;5074874;28;20036;-38
2021/10/05 08:00:24;;;;;;;6.45;1.88;;;13.70;77.30;;;;;;5074635;28;20036;-38
2021/10/05 08:02:50;;;;;;;3.33;1.98;;;13.60;77.00;;;;;;5074665;28;20532;-38
2021/10/05 08:05:16;;;;;;;4.03;1.63;;;13.60;77.40;;;;;;5055690;28;20369;-38
2021/10/05 08:07:45;;;;;;;1.65;1.17;;;13.80;76.10;;;;;;5074832;28;20325;-37
2021/10/05 08:10:12;;;;;;;2.90;0.90;;;14.30;75.00;;;;;;5074531;28;20483;-37
2021/10/05 08:12:40;;;;;;;1.75;1.58;;;14.50;73.80;;;;;;5074580;28;20132;-37
2021/10/05 08:15:07;;;;;;;1.85;1.00;;;14.60;73.30;;;;;;5074555;28;20084;-37
2021/10/05 08:17:32;;;;;;;4.30;1.23;;;14.80;72.40;;;;;;5074580;28;20024;-36
2021/10/05 08:19:58;;;;;;;1.52;0.98;;;15.00;71.30;;;;;;5074347;28;20454;-37
2021/10/05 08:22:24;;;;;;;2.50;1.40;;;15.10;71.20;;;;;;5074840;28;20099;-37
2021/10/05 08:24:49;;;;;;;1.27;0.80;;;14.90;71.30;;;;;;5074657;28;20116;-37
2021/10/05 08:27:15;;;;;;;4.95;2.80;;;15.30;70.30;;;;;;5074092;28;20037;-38
2021/10/05 08:29:44;;;;;;;1.58;0.98;;;15.50;70.10;;;;;;5074097;28;20038;-37
2021/10/05 08:32:10;;;;;;;2.70;1.17;;;15.20;70.20;;;;;;5056855;28;20055;-37
2021/10/05 08:34:36;;;;;;;2.63;1.33;;;15.40;69.40;;;;;;5073602;28;20047;-38
2021/10/05 08:37:02;;;;;;;2.58;1.85;;;15.50;68.40;;;;;;5074073;28;20036;-44
2021/10/05 08:39:28;;;;;;;3.15;1.40;;;15.40;68.50;;;;;;5074048;28;20036;-36
2021/10/05 08:41:53;;;;;;;3.53;1.80;;;16.20;66.50;;;;;;5073834;28;20495;-37
2021/10/05 08:44:22;;;;;;;3.65;1.30;;;16.60;65.50;;;;;;5073770;28;20498;-37
2021/10/05 08:46:48;;;;;;;4.47;1.73;;;16.40;65.50;;;;;;5073481;28;20406;-42
2021/10/05 08:49:14;;;;;;;3.25;1.27;;;16.00;66.20;;;;;;5073831;28;20101;-37
2021/10/05 08:51:41;;;;;;;2.00;1.20;;;16.40;65.70;;;;;;5073229;28;20028;-37
2021/10/05 08:54:09;;;;;;;1.77;1.10;;;16.30;65.00;;;;;;5073186;28;20452;-40
2021/10/05 08:56:35;;;;;;;1.40;1.30;;;16.40;65.30;;;;;;5073408;28;20027;-36
2021/10/05 08:59:00;;;;;;;2.72;1.10;;;16.30;65.20;;;;;;5073325;28;20024;-36
2021/10/05 09:01:32;;;;;;;0.68;0.68;;;16.00;66.20;;;;;;5055349;28;20025;-37
2021/10/05 09:03:58;;;;;;;2.42;0.85;;;16.00;67.30;;;;;;5072572;28;20035;-37
2021/10/05 09:06:24;;;;;;;2.83;1.00;;;16.10;66.20;;;;;;5038919;28;20036;-38
2021/10/05 09:08:53;;;;;;;2.85;1.20;;;16.40;65.40;;;;;;5074556;28;20483;-37
2021/10/05 09:11:20;;;;;;;3.25;1.23;;;16.90;63.30;;;;;;5056841;28;20021;-39
2021/10/05 09:13:55;;;;;;;1.30;0.88;;;17.30;61.60;;;;;;5073537;28;20111;-37
2021/10/05 09:16:22;;;;;;;1.05;0.90;;;16.80;62.70;;;;;;5074700;28;20481;-38
2021/10/05 09:19:04;;;;;;;1.33;1.10;;;16.70;63.60;;;;;;5072826;28;20024;-37
2021/10/05 09:21:34;;;;;;;2.33;0.90;;;17.00;63.00;;;;;;5073208;28;20017;-38
2021/10/05 09:24:05;;;;;;;0.82;0.75;;;16.80;64.00;;;;;;5073310;28;20035;-43
2021/10/05 09:26:51;;;;;;;2.97;1.50;;;17.30;60.80;;;;;;5073261;28;20033;-40
2021/10/05 09:29:25;;;;;;;2.92;1.08;;;17.10;62.00;;;;;;5073043;28;20033;-38
2021/10/05 09:32:00;;;;;;;2.20;1.38;;;16.70;62.90;;;;;;5054696;28;20423;-36
2021/10/05 09:34:33;;;;;;;1.83;1.13;;;16.40;63.40;;;;;;5054927;28;20369;-37
2021/10/05 09:37:07;;;;;;;2.95;0.88;;;16.30;64.30;;;;;;5072396;28;20025;-37
2021/10/05 09:39:52;;;;;;;1.88;1.00;;;16.10;66.20;;;;;;5073061;28;20060;-37
2021/10/05 09:42:30;;;;;;;1.20;1.10;;;16.50;63.80;;;;;;5072806;28;20107;-37
2021/10/05 09:45:02;;;;;;;2.15;0.88;;;16.80;63.00;;;;;;5073073;28;20052;-38
2021/10/05 09:47:36;;;;;;;2.20;0.85;;;16.90;61.30;;;;;;5072467;28;20029;-37
2021/10/05 09:50:28;;;;;;;2.20;0.77;;;16.80;62.10;;;;;;5055475;28;20025;-38
2021/10/05 09:53:01;;;;;;;4.03;1.35;;;17.80;59.30;;;;;;5072101;28;20115;-37
2021/10/05 09:55:31;;;;;;;2.08;1.00;;;18.20;57.90;;;;;;5072472;28;20031;-37
2021/10/05 09:57:57;;;;;;;1.35;1.00;;;18.90;55.90;;;;;;5072203;28;20025;-37
2021/10/05 10:00:26;;;;;;;1.77;1.13;;;19.70;53.20;;;;;;5054424;28;20388;-38
2021/10/05 10:02:52;;;;;;;2.77;1.03;;;18.50;55.50;;;;;;5072853;28;20055;-38
2021/10/05 10:05:21;;;;;;;2.60;1.08;;;18.40;56.30;;;;;;5072512;28;20076;-38
2021/10/05 10:07:49;;;;;;;6.03;2.70;;;19.30;54.20;;;;;;5072211;28;20518;-38
2021/10/05 10:10:19;;;;;;;1.42;0.85;;;19.40;53.60;;;;;;5072098;28;20075;-37
2021/10/05 10:12:54;;;;;;;2.00;1.25;;;19.30;53.30;;;;;;5072602;28;20040;-39
2021/10/05 10:15:24;;;;;;;1.52;0.85;;;19.90;52.20;;;;;;5054552;28;20468;-38
2021/10/05 10:17:50;;;;;;;1.52;1.10;;;19.70;52.30;;;;;;5053887;28;20024;-38
2021/10/05 10:20:25;;;;;;;7.07;1.15;;;19.70;53.00;;;;;;5072360;28;20031;-39
2021/10/05 10:22:51;;;;;;;1.52;0.80;;;20.20;50.60;;;;;;5072271;28;20020;-38
2021/10/05 10:25:19;;;;;;;4.00;0.82;;;19.40;52.30;;;;;;5072865;28;20495;-39
2021/10/05 10:27:45;;;;;;;2.15;0.65;;;19.10;53.20;;;;;;5071816;28;20139;-39
2021/10/05 10:30:12;;;;;;;2.13;0.90;;;19.30;53.20;;;;;;5071945;28;20035;-37
2021/10/05 10:32:44;;;;;;;3.30;1.08;;;18.60;54.40;;;;;;5071864;28;20048;-39
2021/10/05 10:35:11;;;;;;;2.08;1.02;;;19.50;52.80;;;;;;5071931;28;20031;-40
2021/10/05 10:37:46;;;;;;;1.23;0.73;;;19.90;51.70;;;;;;5054292;28;20028;-39
2021/10/05 10:40:14;;;;;;;2.03;0.82;;;19.50;52.50;;;;;;5072139;28;20024;-38
2021/10/05 10:42:40;;;;;;;1.38;0.60;;;19.10;52.50;;;;;;5072668;28;20028;-39
2021/10/05 10:45:12;;;;;;;1.23;0.60;;;18.80;53.60;;;;;;5072003;28;20028;-38
2021/10/05 10:47:39;;;;;;;2.75;0.75;;;19.20;52.70;;;;;;5072510;28;20178;-39
2021/10/05 10:50:07;;;;;;;7.20;0.75;;;19.20;52.30;;;;;;5053983;28;20443;-38
2021/10/05 10:52:35;;;;;;;1.58;0.82;;;18.70;52.90;;;;;;5057808;28;20169;-38
2021/10/05 10:55:03;;;;;;;3.08;1.27;;;19.00;53.70;;;;;;5075567;28;20022;-39
2021/10/05 10:57:42;;;;;;;1.20;0.90;;;19.60;51.70;;;;;;5075631;28;20028;-37
2021/10/05 11:00:21;;;;;;;0.80;0.73;;;19.40;51.90;;;;;;5076019;28;20085;-38
2021/10/05 11:02:51;;;;;;;2.55;0.90;;;19.50;51.20;;;;;;5077077;28;20420;-38
2021/10/05 11:05:21;;;;;;;3.38;2.13;;;19.90;50.50;;;;;;5075468;28;20054;-39
2021/10/05 11:07:47;;;;;;;2.53;1.20;;;20.30;49.20;;;;;;5075325;28;20029;-38
2021/10/05 11:10:13;;;;;;;1.88;0.90;;;20.30;49.40;;;;;;5057621;28;20503;-38
2021/10/05 11:12:53;;;;;;;8.18;1.08;;;20.00;49.80;;;;;;5057617;28;20021;-37
2021/10/05 11:15:33;;;;;;;2.45;0.80;;;20.50;49.00;;;;;;5075883;28;20468;-37
2021/10/05 11:18:10;;;;;;;5.40;1.33;;;20.60;48.50;;;;;;5075154;28;20086;-37
2021/10/05 11:20:42;;;;;;;2.90;0.85;;;20.20;49.10;;;;;;5056831;28;20025;-38
2021/10/05 11:23:07;;;;;;;1.42;0.70;;;20.40;48.90;;;;;;5074941;28;20408;-38
2021/10/05 11:25:34;;;;;;;1.85;0.85;;;19.70;51.10;;;;;;5074520;28;20149;-39
2021/10/05 11:28:11;;;;;;;3.35;1.35;;;20.00;50.50;;;;;;5074650;28;20038;-38
2021/10/05 11:30:51;;;;;;;4.55;1.20;;;19.80;51.10;;;;;;5075071;28;20380;-37
2021/10/05 11:33:24;;;;;;;3.70;1.05;;;20.20;50.50;;;;;;5075438;28;20387;-38
2021/10/05 11:35:50;;;;;;;2.38;0.80;;;20.20;50.40;;;;;;5075604;28;20149;-37
2021/10/05 11:38:16;;;;;;;2.45;1.00;;;21.10;48.40;;;;;;5075406;28;20111;-40
2021/10/05 11:40:54;;;;;;;2.75;0.95;;;21.70;47.20;;;;;;5057126;28;20051;-38
2021/10/05 11:43:30;;;;;;;3.08;1.13;;;21.70;46.30;;;;;;5075011;28;20025;-37
2021/10/05 11:45:56;;;;;;;2.67;1.08;;;21.60;47.00;;;;;;5075310;28;20024;-40
2021/10/05 11:48:22;;;;;;;5.43;0.93;;;21.60;47.00;;;;;;5057107;28;20511;-39
2021/10/05 11:50:47;;;;;;;1.10;0.63;;;21.70;46.60;;;;;;5075195;28;20088;-37
2021/10/05 11:53:13;;;;;;;8.20;1.35;;;21.50;47.20;;;;;;5074694;28;20171;-38
2021/10/05 11:55:39;;;;;;;2.67;0.90;;;20.80;48.60;;;;;;5074679;28;20032;-38
2021/10/05 11:58:04;;;;;;;1.45;1.05;;;19.90;51.40;;;;;;5074680;28;20068;-38
2021/10/05 12:00:30;;;;;;;4.82;1.00;;;19.30;53.30;;;;;;5075447;28;20036;-37
2021/10/05 12:02:56;;;;;;;6.45;1.95;;;19.20;53.90;;;;;;5073682;28;20040;-38
2021/10/05 12:05:24;;;;;;;5.18;1.13;;;19.30;53.60;;;;;;5074583;28;20053;-38
2021/10/05 12:07:50;;;;;;;2.42;0.70;;;19.20;54.60;;;;;;5074744;28;20024;-38
2021/10/05 12:10:18;;;;;;;2.25;1.00;;;19.00;54.60;;;;;;5074835;28;20024;-38
2021/10/05 12:12:45;;;;;;;2.20;1.10;;;18.80;54.50;;;;;;5076135;28;20028;-38
2021/10/05 12:15:15;;;;;;;1.75;0.80;;;18.80;55.10;;;;;;5074360;28;20019;-39
2021/10/05 12:17:42;;;;;;;0.77;0.40;;;18.90;55.00;;;;;;5057787;28;20024;-38
2021/10/05 12:20:11;;;;;;;1.05;0.90;;;19.00;54.10;;;;;;5074252;28;20430;-37
2021/10/05 12:22:47;;;;;;;0.82;0.82;;;18.80;54.50;;;;;;5074840;28;20021;-37
2021/10/05 12:25:12;;;;;;;1.45;0.95;;;18.80;54.10;;;;;;5074922;28;20123;-37
2021/10/05 12:27:41;;;;;;;1.63;1.25;;;19.00;54.30;;;;;;5074316;28;20108;-37
2021/10/05 12:30:17;;;;;;;2.13;0.50;;;18.90;55.40;;;;;;5074181;28;20036;-39
2021/10/05 12:32:48;;;;;;;2.15;0.60;;;18.60;54.50;;;;;;5074900;28;20070;-38
2021/10/05 12:35:35;;;;;;;3.80;0.63;;;18.80;54.40;;;;;;5074457;28;20028;-38
2021/10/05 12:38:17;;;;;;;2.72;0.82;;;18.70;55.10;;;;;;5074407;28;20436;-38
2021/10/05 12:40:55;;;;;;;5.07;1.23;;;18.50;55.80;;;;;;5074534;28;20035;-37
2021/10/05 12:43:39;;;;;;;1.35;0.90;;;18.40;56.20;;;;;;5074777;28;20031;-38
2021/10/05 12:46:09;;;;;;;1.13;0.85;;;18.30;56.10;;;;;;5075076;28;20017;-37
2021/10/05 12:48:37;;;;;;;1.77;0.80;;;18.20;57.00;;;;;;5073504;28;20020;-38
2021/10/05 12:51:24;;;;;;;1.42;0.93;;;18.30;57.20;;;;;;5073992;28;20028;-39
2021/10/05 12:53:54;;;;;;;1.45;1.10;;;18.30;56.70;;;;;;5074222;28;20460;-37